Hornbeak, Tennessee
Current Conditions -  °F | °C
As of 9:15 PM on Tuesday 21 Oct 2014 (Local Time) from KUCY Reporting Station
Clear Clear  
Wind Chill: 57°   Ceiling: Unl
Heat Index: 57°   Visibility: 10mi
Dew Point: 45°   Wind: 10mph
Humidity: 63%   Direction: 50°NE
Pressure: 30.12"   Gusts: NA
Location:  36.33°N, 89.3°W
Report Text: KUCY 220215Z AUTO 05009KT 10SM CLR 14/07 A3012 RMK
Loading
Personal Weather Stations






























Interactive Weather Map
Tropical Storm Tracking
New forecast layout! Learn more

10-Day Weather Forecast

Advertisements
Track Severe Weather on mobile